Circleville, Utah
Current Conditions -  °F | °C
As of 3:53 PM on Wednesday 22 Oct 2014 (Local Time) from KBCE Reporting Station
Overcast Overcast  
Wind Chill: 61°   Ceiling: 6500
Heat Index: 61°   Visibility: 10mi
Dew Point: 32°   Wind: 9mph
Humidity: 34%   Direction: 110°ESE
Pressure: 30.23"   Gusts: NA
Location:  38.17°N, 112.27°W
Report Text: KBCE 222153Z AUTO 11008KT 10SM OVC065 16/00 A3023 RMK AO2 SLP160 T01610000 TSNO
Loading
Personal Weather Stations






























Interactive Weather Map
Tropical Storm Tracking
New forecast layout! Learn more

10-Day Weather Forecast

Advertisements
Track Severe Weather on mobile